sensor_id;sensor_type;location;lat;lon;timestamp;pressure;altitude;pressure_sealevel;temperature;humidity
73864;BME280;62200;52.062;5.292;2022-08-01T00:01:00;101690.41;;;18.44;90.06
73864;BME280;62200;52.062;5.292;2022-08-01T00:03:26;101688.44;;;18.46;89.88
73864;BME280;62200;52.062;5.292;2022-08-01T00:05:52;101689.66;;;18.42;89.76
73864;BME280;62200;52.062;5.292;2022-08-01T00:08:17;101694.22;;;18.41;90.36
73864;BME280;62200;52.062;5.292;2022-08-01T00:10:42;101689.44;;;18.45;89.88
73864;BME280;62200;52.062;5.292;2022-08-01T00:13:08;101690.66;;;18.41;90.92
73864;BME280;62200;52.062;5.292;2022-08-01T00:15:34;101687.09;;;18.40;90.42
73864;BME280;62200;52.062;5.292;2022-08-01T00:17:59;101684.19;;;18.43;90.29
73864;BME280;62200;52.062;5.292;2022-08-01T00:20:25;101689.91;;;18.39;90.42
73864;BME280;62200;52.062;5.292;2022-08-01T00:22:50;101694.34;;;18.40;90.63
73864;BME280;62200;52.062;5.292;2022-08-01T00:25:15;101683.59;;;18.29;89.88
73864;BME280;62200;52.062;5.292;2022-08-01T00:27:41;101684.91;;;18.34;90.56
73864;BME280;62200;52.062;5.292;2022-08-01T00:30:06;101689.56;;;18.32;90.51
73864;BME280;62200;52.062;5.292;2022-08-01T00:32:32;101690.78;;;18.28;90.69
73864;BME280;62200;52.062;5.292;2022-08-01T00:34:57;101685.41;;;18.28;90.81
73864;BME280;62200;52.062;5.292;2022-08-01T00:37:23;101693.13;;;18.33;90.45
73864;BME280;62200;52.062;5.292;2022-08-01T00:39:48;101689.69;;;18.31;90.62
73864;BME280;62200;52.062;5.292;2022-08-01T00:42:14;101695.22;;;18.29;91.35
73864;BME280;62200;52.062;5.292;2022-08-01T00:44:39;101695.47;;;18.26;91.07
73864;BME280;62200;52.062;5.292;2022-08-01T00:47:05;101691.78;;;18.27;91.15
73864;BME280;62200;52.062;5.292;2022-08-01T00:49:31;101688.09;;;18.28;90.78
73864;BME280;62200;52.062;5.292;2022-08-01T00:51:57;101690.78;;;18.28;91.48
73864;BME280;62200;52.062;5.292;2022-08-01T00:54:24;101702.56;;;18.27;90.91
73864;BME280;62200;52.062;5.292;2022-08-01T00:56:50;101700.13;;;18.24;91.44
73864;BME280;62200;52.062;5.292;2022-08-01T00:59:17;101690.72;;;18.19;91.10
73864;BME280;62200;52.062;5.292;2022-08-01T01:01:43;101701.09;;;18.23;90.84
73864;BME280;62200;52.062;5.292;2022-08-01T01:04:10;101681.53;;;18.21;90.91
73864;BME280;62200;52.062;5.292;2022-08-01T01:06:48;101708.06;;;18.26;91.20
73864;BME280;62200;52.062;5.292;2022-08-01T01:09:34;101704.53;;;18.25;91.41
73864;BME280;62200;52.062;5.292;2022-08-01T01:14:47;101682.53;;;18.20;90.67
73864;BME280;62200;52.062;5.292;2022-08-01T01:17:17;101695.13;;;18.20;91.55
73864;BME280;62200;52.062;5.292;2022-08-01T01:19:47;101692.56;;;18.18;91.66
73864;BME280;62200;52.062;5.292;2022-08-01T01:25:26;101682.06;;;18.15;91.90
73864;BME280;62200;52.062;5.292;2022-08-01T01:28:17;101691.59;;;18.19;91.65
73864;BME280;62200;52.062;5.292;2022-08-01T01:30:46;101689.13;;;18.16;91.96
73864;BME280;62200;52.062;5.292;2022-08-01T01:33:14;101682.31;;;18.12;91.45
73864;BME280;62200;52.062;5.292;2022-08-01T01:35:52;101677.66;;;18.14;91.63
73864;BME280;62200;52.062;5.292;2022-08-01T01:38:25;101687.84;;;18.11;91.81
73864;BME280;62200;52.062;5.292;2022-08-01T01:40:53;101685.97;;;18.11;91.98
73864;BME280;62200;52.062;5.292;2022-08-01T01:43:21;101686.09;;;18.10;91.81
73864;BME280;62200;52.062;5.292;2022-08-01T01:45:48;101685.97;;;18.11;91.97
73864;BME280;62200;52.062;5.292;2022-08-01T01:48:18;101684.88;;;18.14;91.45
73864;BME280;62200;52.062;5.292;2022-08-01T01:50:47;101688.19;;;18.06;91.78
73864;BME280;62200;52.062;5.292;2022-08-01T01:53:18;101698.47;;;18.12;91.97
73864;BME280;62200;52.062;5.292;2022-08-01T01:55:47;101709.38;;;18.11;91.84
73864;BME280;62200;52.062;5.292;2022-08-01T01:58:14;101706.06;;;18.07;91.75
73864;BME280;62200;52.062;5.292;2022-08-01T02:00:42;101695.31;;;18.07;92.22
73864;BME280;62200;52.062;5.292;2022-08-01T02:03:11;101698.47;;;18.12;91.99
73864;BME280;62200;52.062;5.292;2022-08-01T02:05:38;101698.47;;;18.12;92.22
73864;BME280;62200;52.062;5.292;2022-08-01T02:08:05;101693.22;;;18.11;92.02
73864;BME280;62200;52.062;5.292;2022-08-01T02:10:32;101687.84;;;18.11;91.75
73864;BME280;62200;52.062;5.292;2022-08-01T02:13:02;101696.00;;;18.09;92.23
73864;BME280;62200;52.062;5.292;2022-08-01T02:15:29;101696.50;;;18.14;91.81
73864;BME280;62200;52.062;5.292;2022-08-01T02:17:57;101693.09;;;18.12;92.29
73864;BME280;62200;52.062;5.292;2022-08-01T02:20:24;101698.47;;;18.12;92.28
73864;BME280;62200;52.062;5.292;2022-08-01T02:22:53;101691.03;;;18.05;92.40
73864;BME280;62200;52.062;5.292;2022-08-01T02:25:31;101686.75;;;18.02;92.64
73864;BME280;62200;52.062;5.292;2022-08-01T02:28:01;101708.03;;;18.05;92.96
73864;BME280;62200;52.062;5.292;2022-08-01T02:30:39;101694.94;;;18.01;92.76
73864;BME280;62200;52.062;5.292;2022-08-01T02:33:21;101694.69;;;18.04;93.19
73864;BME280;62200;52.062;5.292;2022-08-01T02:35:50;101696.78;;;18.00;93.25
73864;BME280;62200;52.062;5.292;2022-08-01T02:38:18;101697.28;;;17.94;93.20
73864;BME280;62200;52.062;5.292;2022-08-01T02:40:47;101701.44;;;17.98;93.01
73864;BME280;62200;52.062;5.292;2022-08-01T02:43:18;101706.56;;;18.01;93.19
73864;BME280;62200;52.062;5.292;2022-08-01T02:45:52;101705.69;;;18.01;92.90
73864;BME280;62200;52.062;5.292;2022-08-01T02:48:19;101708.50;;;17.99;93.47
73864;BME280;62200;52.062;5.292;2022-08-01T02:50:47;101707.69;;;17.99;93.40
73864;BME280;62200;52.062;5.292;2022-08-01T02:53:14;101697.16;;;17.96;93.21
73864;BME280;62200;52.062;5.292;2022-08-01T02:55:43;101700.97;;;17.93;93.11
73864;BME280;62200;52.062;5.292;2022-08-01T02:58:14;101701.94;;;17.92;93.20
73864;BME280;62200;52.062;5.292;2022-08-01T03:00:42;101689.97;;;17.85;93.76
73864;BME280;62200;52.062;5.292;2022-08-01T03:03:09;101688.25;;;17.84;93.52
73864;BME280;62200;52.062;5.292;2022-08-01T03:05:35;101686.31;;;17.86;93.41
73864;BME280;62200;52.062;5.292;2022-08-01T03:08:03;101682.41;;;17.90;93.42
73864;BME280;62200;52.062;5.292;2022-08-01T03:10:31;101686.53;;;17.94;93.04
73864;BME280;62200;52.062;5.292;2022-08-01T03:13:00;101689.88;;;17.87;93.50
73864;BME280;62200;52.062;5.292;2022-08-01T03:15:26;101681.66;;;17.88;93.47
73864;BME280;62200;52.062;5.292;2022-08-01T03:17:56;101702.31;;;17.88;93.74
73864;BME280;62200;52.062;5.292;2022-08-01T03:20:25;101694.63;;;17.83;93.70
73864;BME280;62200;52.062;5.292;2022-08-01T03:22:52;101701.59;;;17.86;93.50
73864;BME280;62200;52.062;5.292;2022-08-01T03:25:19;101700.72;;;17.85;92.97
73864;BME280;62200;52.062;5.292;2022-08-01T03:27:51;101701.72;;;17.84;93.00
73864;BME280;62200;52.062;5.292;2022-08-01T03:30:25;101695.72;;;17.81;93.07
73864;BME280;62200;52.062;5.292;2022-08-01T03:32:51;101702.44;;;17.86;92.80
73864;BME280;62200;52.062;5.292;2022-08-01T03:35:17;101700.25;;;17.80;93.41
73864;BME280;62200;52.062;5.292;2022-08-01T03:37:46;101710.16;;;17.80;93.26
73864;BME280;62200;52.062;5.292;2022-08-01T03:40:30;101711.75;;;17.82;93.08
73864;BME280;62200;52.062;5.292;2022-08-01T03:43:00;101715.41;;;17.81;93.65
73864;BME280;62200;52.062;5.292;2022-08-01T03:45:31;101707.72;;;17.77;93.83
73864;BME280;62200;52.062;5.292;2022-08-01T03:48:01;101713.00;;;17.78;93.37
73864;BME280;62200;52.062;5.292;2022-08-01T03:50:29;101710.31;;;17.78;93.46
73864;BME280;62200;52.062;5.292;2022-08-01T03:53:00;101708.56;;;17.77;93.65
73864;BME280;62200;52.062;5.292;2022-08-01T03:55:28;101710.31;;;17.78;93.14
73864;BME280;62200;52.062;5.292;2022-08-01T03:57:56;101709.56;;;17.76;93.45
73864;BME280;62200;52.062;5.292;2022-08-01T04:00:22;101715.69;;;17.78;93.51
73864;BME280;62200;52.062;5.292;2022-08-01T04:02:49;101708.56;;;17.77;93.61
73864;BME280;62200;52.062;5.292;2022-08-01T04:05:16;101713.81;;;17.79;93.33
73864;BME280;62200;52.062;5.292;2022-08-01T04:07:46;101714.56;;;17.81;92.95
73864;BME280;62200;52.062;5.292;2022-08-01T04:10:12;101718.97;;;17.82;92.87
73864;BME280;62200;52.062;5.292;2022-08-01T04:12:37;101709.78;;;17.73;92.85
73864;BME280;62200;52.062;5.292;2022-08-01T04:15:04;101699.69;;;17.66;92.58
73864;BME280;62200;52.062;5.292;2022-08-01T04:17:30;101713.00;;;17.67;92.96
73864;BME280;62200;52.062;5.292;2022-08-01T04:19:55;101714.94;;;17.65;92.44
73864;BME280;62200;52.062;5.292;2022-08-01T04:22:20;101720.59;;;17.62;92.50
73864;BME280;62200;52.062;5.292;2022-08-01T04:24:47;101721.53;;;17.61;92.54
73864;BME280;62200;52.062;5.292;2022-08-01T04:27:17;101725.09;;;17.62;92.96
73864;BME280;62200;52.062;5.292;2022-08-01T04:29:45;101725.97;;;17.62;93.14
73864;BME280;62200;52.062;5.292;2022-08-01T04:32:12;101727.66;;;17.63;92.92
73864;BME280;62200;52.062;5.292;2022-08-01T04:34:41;101733.78;;;17.65;92.79
73864;BME280;62200;52.062;5.292;2022-08-01T04:37:09;101730.22;;;17.65;92.84
73864;BME280;62200;52.062;5.292;2022-08-01T04:39:37;101733.78;;;17.65;92.76
73864;BME280;62200;52.062;5.292;2022-08-01T04:42:05;101735.38;;;17.68;93.02
73864;BME280;62200;52.062;5.292;2022-08-01T04:44:32;101731.56;;;17.70;92.98
73864;BME280;62200;52.062;5.292;2022-08-01T04:47:01;101740.38;;;17.72;93.25
73864;BME280;62200;52.062;5.292;2022-08-01T04:49:30;101735.25;;;17.69;93.24
73864;BME280;62200;52.062;5.292;2022-08-01T04:51:56;101742.19;;;17.72;93.45
73864;BME280;62200;52.062;5.292;2022-08-01T04:54:26;101751.25;;;17.71;93.44
73864;BME280;62200;52.062;5.292;2022-08-01T04:56:55;101752.47;;;17.78;93.07
73864;BME280;62200;52.062;5.292;2022-08-01T04:59:34;101743.53;;;17.77;93.54
73864;BME280;62200;52.062;5.292;2022-08-01T05:02:08;101748.19;;;17.75;93.73
73864;BME280;62200;52.062;5.292;2022-08-01T05:04:34;101754.91;;;17.81;93.34
73864;BME280;62200;52.062;5.292;2022-08-01T05:07:00;101748.06;;;17.77;93.28
73864;BME280;62200;52.062;5.292;2022-08-01T05:09:25;101757.22;;;17.85;93.15
73864;BME280;62200;52.062;5.292;2022-08-01T05:11:51;101753.94;;;17.82;93.38
73864;BME280;62200;52.062;5.292;2022-08-01T05:14:17;101761.38;;;17.89;93.02
73864;BME280;62200;52.062;5.292;2022-08-01T05:16:44;101756.72;;;17.91;92.79
73864;BME280;62200;52.062;5.292;2022-08-01T05:19:09;101750.97;;;17.96;92.83
73864;BME280;62200;52.062;5.292;2022-08-01T05:21:35;101752.56;;;17.87;93.40
73864;BME280;62200;52.062;5.292;2022-08-01T05:24:00;101762.19;;;18.01;93.04
73864;BME280;62200;52.062;5.292;2022-08-01T05:26:26;101761.38;;;17.89;92.67
73864;BME280;62200;52.062;5.292;2022-08-01T05:28:51;101769.91;;;17.94;92.43
73864;BME280;62200;52.062;5.292;2022-08-01T05:31:16;101762.38;;;17.88;91.41
73864;BME280;62200;52.062;5.292;2022-08-01T05:33:42;101760.91;;;17.84;92.01
73864;BME280;62200;52.062;5.292;2022-08-01T05:36:07;101756.50;;;17.83;92.02
73864;BME280;62200;52.062;5.292;2022-08-01T05:38:33;101762.97;;;17.81;92.67
73864;BME280;62200;52.062;5.292;2022-08-01T05:40:58;101758.47;;;17.81;92.64
73864;BME280;62200;52.062;5.292;2022-08-01T05:43:24;101763.84;;;17.81;92.60
73864;BME280;62200;52.062;5.292;2022-08-01T05:45:51;101767.25;;;17.83;92.24
73864;BME280;62200;52.062;5.292;2022-08-01T05:48:16;101772.25;;;17.77;90.99
73864;BME280;62200;52.062;5.292;2022-08-01T05:50:42;101772.16;;;17.78;92.00
73864;BME280;62200;52.062;5.292;2022-08-01T05:53:07;101779.63;;;17.75;92.47
73864;BME280;62200;52.062;5.292;2022-08-01T05:55:33;101779.63;;;17.75;92.46
73864;BME280;62200;52.062;5.292;2022-08-01T05:57:58;101783.53;;;17.71;92.04
73864;BME280;62200;52.062;5.292;2022-08-01T06:00:23;101790.00;;;17.68;92.32
73864;BME280;62200;52.062;5.292;2022-08-01T06:02:49;101788.91;;;17.71;93.13
73864;BME280;62200;52.062;5.292;2022-08-01T06:05:15;101787.69;;;17.64;93.07
73864;BME280;62200;52.062;5.292;2022-08-01T06:07:41;101796.09;;;17.70;93.13
73864;BME280;62200;52.062;5.292;2022-08-01T06:10:07;101792.06;;;17.65;92.41
73864;BME280;62200;52.062;5.292;2022-08-01T06:12:33;101795.88;;;17.62;92.77
73864;BME280;62200;52.062;5.292;2022-08-01T06:14:59;101807.00;;;17.69;92.74
73864;BME280;62200;52.062;5.292;2022-08-01T06:17:24;101805.41;;;17.66;92.80
73864;BME280;62200;52.062;5.292;2022-08-01T06:19:49;101800.75;;;17.68;93.26
73864;BME280;62200;52.062;5.292;2022-08-01T06:22:15;101802.72;;;17.66;93.89
73864;BME280;62200;52.062;5.292;2022-08-01T06:24:40;101802.22;;;17.72;93.16
73864;BME280;62200;52.062;5.292;2022-08-01T06:27:07;101803.84;;;17.75;93.08
73864;BME280;62200;52.062;5.292;2022-08-01T06:29:32;101798.53;;;17.73;93.13
73864;BME280;62200;52.062;5.292;2022-08-01T06:31:58;101799.53;;;17.72;93.37
73864;BME280;62200;52.062;5.292;2022-08-01T06:34:24;101798.78;;;17.70;93.09
73864;BME280;62200;52.062;5.292;2022-08-01T06:36:49;101808.47;;;17.73;92.67
73864;BME280;62200;52.062;5.292;2022-08-01T06:39:14;101799.78;;;17.80;92.75
73864;BME280;62200;52.062;5.292;2022-08-01T06:41:40;101796.84;;;17.72;92.60
73864;BME280;62200;52.062;5.292;2022-08-01T06:44:07;101813.22;;;17.80;92.58
73864;BME280;62200;52.062;5.292;2022-08-01T06:46:33;101818.25;;;17.85;91.96
73864;BME280;62200;52.062;5.292;2022-08-01T06:48:58;101810.75;;;17.99;92.04
73864;BME280;62200;52.062;5.292;2022-08-01T06:51:23;101814.06;;;18.03;92.17
73864;BME280;62200;52.062;5.292;2022-08-01T06:53:50;101803.34;;;17.92;91.29
73864;BME280;62200;52.062;5.292;2022-08-01T06:56:15;101821.78;;;17.96;91.81
73864;BME280;62200;52.062;5.292;2022-08-01T06:58:41;101814.19;;;18.01;91.72
73864;BME280;62200;52.062;5.292;2022-08-01T07:01:06;101809.06;;;17.98;92.02
73864;BME280;62200;52.062;5.292;2022-08-01T07:03:36;101814.19;;;18.01;91.47
73864;BME280;62200;52.062;5.292;2022-08-01T07:06:02;101812.50;;;18.00;91.73
73864;BME280;62200;52.062;5.292;2022-08-01T07:08:27;101809.03;;;18.09;92.17
73864;BME280;62200;52.062;5.292;2022-08-01T07:10:53;101814.78;;;18.16;91.68
73864;BME280;62200;52.062;5.292;2022-08-01T07:13:18;101817.84;;;18.22;91.23
73864;BME280;62200;52.062;5.292;2022-08-01T07:15:50;101812.72;;;18.08;91.55
73864;BME280;62200;52.062;5.292;2022-08-01T07:18:15;101809.94;;;17.99;92.28
73864;BME280;62200;52.062;5.292;2022-08-01T07:20:40;101808.72;;;17.92;92.77
73864;BME280;62200;52.062;5.292;2022-08-01T07:23:06;101830.59;;;17.98;92.02
73864;BME280;62200;52.062;5.292;2022-08-01T07:25:31;101834.03;;;18.00;92.00
73864;BME280;62200;52.062;5.292;2022-08-01T07:27:57;101826.16;;;18.08;92.72
73864;BME280;62200;52.062;5.292;2022-08-01T07:30:23;101830.22;;;18.14;92.68
73864;BME280;62200;52.062;5.292;2022-08-01T07:32:48;101822.75;;;18.06;92.47
73864;BME280;62200;52.062;5.292;2022-08-01T07:35:14;101832.41;;;18.09;92.68
73864;BME280;62200;52.062;5.292;2022-08-01T07:37:39;101845.38;;;17.93;92.51
73864;BME280;62200;52.062;5.292;2022-08-01T07:40:07;101845.75;;;17.88;93.79
73864;BME280;62200;52.062;5.292;2022-08-01T07:42:32;101847.47;;;17.89;92.94
73864;BME280;62200;52.062;5.292;2022-08-01T07:44:58;101844.78;;;17.78;93.60
73864;BME280;62200;52.062;5.292;2022-08-01T07:47:24;101852.59;;;17.81;93.70
73864;BME280;62200;52.062;5.292;2022-08-01T07:49:50;101860.44;;;17.84;93.66
73864;BME280;62200;52.062;5.292;2022-08-01T07:52:16;101857.97;;;17.70;93.05
73864;BME280;62200;52.062;5.292;2022-08-01T07:54:41;101862.38;;;17.71;92.77
73864;BME280;62200;52.062;5.292;2022-08-01T07:57:07;101864.09;;;17.72;93.97
73864;BME280;62200;52.062;5.292;2022-08-01T07:59:33;101863.34;;;17.70;94.84
73864;BME280;62200;52.062;5.292;2022-08-01T08:01:58;101873.84;;;17.73;93.47
73864;BME280;62200;52.062;5.292;2022-08-01T08:04:24;101874.59;;;17.75;93.14
73864;BME280;62200;52.062;5.292;2022-08-01T08:06:49;101868.25;;;17.76;94.34
73864;BME280;62200;52.062;5.292;2022-08-01T08:09:15;101875.81;;;17.82;93.78
73864;BME280;62200;52.062;5.292;2022-08-01T08:11:45;101868.75;;;17.81;94.14
73864;BME280;62200;52.062;5.292;2022-08-01T08:14:10;101870.72;;;17.90;94.38
73864;BME280;62200;52.062;5.292;2022-08-01T08:16:36;101873.63;;;17.87;93.53
73864;BME280;62200;52.062;5.292;2022-08-01T08:19:02;101878.91;;;18.00;94.44
73864;BME280;62200;52.062;5.292;2022-08-01T08:21:27;101878.16;;;18.09;94.38
73864;BME280;62200;52.062;5.292;2022-08-01T08:23:53;101879.53;;;18.14;94.29
73864;BME280;62200;52.062;5.292;2022-08-01T08:26:37;101881.22;;;18.26;93.26
73864;BME280;62200;52.062;5.292;2022-08-01T08:29:03;101877.53;;;18.27;93.56
73864;BME280;62200;52.062;5.292;2022-08-01T08:31:28;101880.22;;;18.38;92.32
73864;BME280;62200;52.062;5.292;2022-08-01T08:33:53;101881.44;;;18.45;92.83
73864;BME280;62200;52.062;5.292;2022-08-01T08:36:19;101884.13;;;18.56;92.53
73864;BME280;62200;52.062;5.292;2022-08-01T08:38:44;101878.81;;;18.66;92.50
73864;BME280;62200;52.062;5.292;2022-08-01T08:41:10;101879.78;;;18.76;90.61
73864;BME280;62200;52.062;5.292;2022-08-01T08:43:35;101888.56;;;18.78;92.62
73864;BME280;62200;52.062;5.292;2022-08-01T08:46:01;101894.41;;;18.94;93.00
73864;BME280;62200;52.062;5.292;2022-08-01T08:48:26;101895.63;;;18.90;89.46
73864;BME280;62200;52.062;5.292;2022-08-01T08:50:55;101888.56;;;18.89;90.92
73864;BME280;62200;52.062;5.292;2022-08-01T08:53:21;101886.66;;;19.01;92.30
73864;BME280;62200;52.062;5.292;2022-08-01T08:55:47;101887.13;;;19.06;88.77
73864;BME280;62200;52.062;5.292;2022-08-01T08:58:14;101892.53;;;19.06;90.03
73864;BME280;62200;52.062;5.292;2022-08-01T09:00:42;101890.78;;;19.16;91.52
73864;BME280;62200;52.062;5.292;2022-08-01T09:03:08;101896.78;;;19.19;91.45
73864;BME280;62200;52.062;5.292;2022-08-01T09:05:33;101901.31;;;19.19;91.39
73864;BME280;62200;52.062;5.292;2022-08-01T09:07:59;101898.06;;;19.25;90.62
73864;BME280;62200;52.062;5.292;2022-08-01T09:10:25;101904.72;;;19.21;89.13
73864;BME280;62200;52.062;5.292;2022-08-01T09:13:11;101901.66;;;19.14;89.72
73864;BME280;62200;52.062;5.292;2022-08-01T09:15:44;101918.84;;;19.13;90.25
73864;BME280;62200;52.062;5.292;2022-08-01T09:18:42;101914.75;;;19.30;92.16
73864;BME280;62200;52.062;5.292;2022-08-01T09:21:15;101911.38;;;19.48;89.46
73864;BME280;62200;52.062;5.292;2022-08-01T09:23:44;101918.41;;;19.60;85.61
73864;BME280;62200;52.062;5.292;2022-08-01T09:26:11;101911.59;;;19.66;86.02
73864;BME280;62200;52.062;5.292;2022-08-01T09:28:37;101916.22;;;19.75;87.28
73864;BME280;62200;52.062;5.292;2022-08-01T09:31:10;101928.81;;;19.95;87.31
73864;BME280;62200;52.062;5.292;2022-08-01T09:33:49;101927.25;;;19.93;86.83
73864;BME280;62200;52.062;5.292;2022-08-01T09:36:15;101930.75;;;19.84;85.56
73864;BME280;62200;52.062;5.292;2022-08-01T09:38:40;101935.41;;;19.82;86.84
73864;BME280;62200;52.062;5.292;2022-08-01T09:41:05;101932.66;;;19.72;87.84
73864;BME280;62200;52.062;5.292;2022-08-01T09:43:33;101937.47;;;19.68;87.38
73864;BME280;62200;52.062;5.292;2022-08-01T09:46:05;101936.94;;;19.74;87.74
73864;BME280;62200;52.062;5.292;2022-08-01T09:48:34;101938.38;;;19.79;80.82
73864;BME280;62200;52.062;5.292;2022-08-01T09:51:02;101934.50;;;19.92;83.54
73864;BME280;62200;52.062;5.292;2022-08-01T09:53:40;101942.84;;;20.10;85.18
73864;BME280;62200;52.062;5.292;2022-08-01T09:56:10;101955.44;;;20.30;83.47
73864;BME280;62200;52.062;5.292;2022-08-01T09:58:49;101933.41;;;20.25;85.18
73864;BME280;62200;52.062;5.292;2022-08-01T10:01:15;101941.81;;;20.31;84.39
73864;BME280;62200;52.062;5.292;2022-08-01T10:03:40;101939.03;;;20.52;83.04
73864;BME280;62200;52.062;5.292;2022-08-01T10:06:21;101925.72;;;20.69;80.84
73864;BME280;62200;52.062;5.292;2022-08-01T10:08:48;101931.09;;;21.00;83.87
73864;BME280;62200;52.062;5.292;2022-08-01T10:11:13;101942.34;;;21.05;81.20
73864;BME280;62200;52.062;5.292;2022-08-01T10:13:39;101944.75;;;20.98;74.54
73864;BME280;62200;52.062;5.292;2022-08-01T10:16:05;101952.75;;;21.19;80.01
73864;BME280;62200;52.062;5.292;2022-08-01T10:18:34;101947.91;;;21.22;79.75
73864;BME280;62200;52.062;5.292;2022-08-01T10:21:01;101952.59;;;21.01;78.83
73864;BME280;62200;52.062;5.292;2022-08-01T10:23:33;101949.94;;;20.80;79.02
73864;BME280;62200;52.062;5.292;2022-08-01T10:26:00;101957.34;;;20.78;79.62
73864;BME280;62200;52.062;5.292;2022-08-01T10:28:26;101952.34;;;20.74;77.05
73864;BME280;62200;52.062;5.292;2022-08-01T10:30:56;101939.66;;;20.65;76.05
73864;BME280;62200;52.062;5.292;2022-08-01T10:33:23;101935.50;;;20.51;78.90
73864;BME280;62200;52.062;5.292;2022-08-01T10:35:50;101939.31;;;20.39;78.02
73864;BME280;62200;52.062;5.292;2022-08-01T10:38:16;101943.03;;;20.48;79.94
73864;BME280;62200;52.062;5.292;2022-08-01T10:40:43;101953.28;;;20.54;80.50
73864;BME280;62200;52.062;5.292;2022-08-01T10:43:15;101945.94;;;20.65;74.53
73864;BME280;62200;52.062;5.292;2022-08-01T10:45:42;101949.31;;;20.67;79.74
73864;BME280;62200;52.062;5.292;2022-08-01T10:48:19;101941.38;;;20.66;74.31
73864;BME280;62200;52.062;5.292;2022-08-01T10:50:48;101936.97;;;20.74;77.58
73864;BME280;62200;52.062;5.292;2022-08-01T10:53:17;101942.81;;;20.79;75.82
73864;BME280;62200;52.062;5.292;2022-08-01T10:55:58;101948.22;;;20.79;75.87
73864;BME280;62200;52.062;5.292;2022-08-01T10:58:36;101939.84;;;20.82;76.46
73864;BME280;62200;52.062;5.292;2022-08-01T11:03:57;101949.81;;;20.92;76.58
73864;BME280;62200;52.062;5.292;2022-08-01T11:06:42;101950.78;;;20.81;77.69
73864;BME280;62200;52.062;5.292;2022-08-01T11:14:25;101945.88;;;21.05;77.86
73864;BME280;62200;52.062;5.292;2022-08-01T11:16:51;101948.88;;;21.02;75.39
73864;BME280;62200;52.062;5.292;2022-08-01T11:19:16;101946.16;;;21.02;77.13
73864;BME280;62200;52.062;5.292;2022-08-01T11:29:41;101962.69;;;21.28;72.80
73864;BME280;62200;52.062;5.292;2022-08-01T11:32:26;101971.66;;;21.38;73.01
73864;BME280;62200;52.062;5.292;2022-08-01T11:34:53;101975.81;;;21.42;71.23
73864;BME280;62200;52.062;5.292;2022-08-01T11:37:29;101961.88;;;21.46;67.33
73864;BME280;62200;52.062;5.292;2022-08-01T11:40:17;101965.97;;;21.60;69.69
73864;BME280;62200;52.062;5.292;2022-08-01T11:42:43;101961.41;;;21.60;70.76
73864;BME280;62200;52.062;5.292;2022-08-01T11:45:08;101962.53;;;21.77;67.59
73864;BME280;62200;52.062;5.292;2022-08-01T11:52:58;101958.81;;;21.97;68.08
73864;BME280;62200;52.062;5.292;2022-08-01T11:55:24;101960.66;;;22.06;62.43
73864;BME280;62200;52.062;5.292;2022-08-01T11:57:58;101953.09;;;22.00;65.46
73864;BME280;62200;52.062;5.292;2022-08-01T12:00:24;101963.09;;;21.90;68.65
73864;BME280;62200;52.062;5.292;2022-08-01T12:03:04;101966.41;;;21.84;64.34
73864;BME280;62200;52.062;5.292;2022-08-01T12:05:30;101972.50;;;21.95;63.72
73864;BME280;62200;52.062;5.292;2022-08-01T12:07:57;101980.06;;;21.92;63.30
73864;BME280;62200;52.062;5.292;2022-08-01T12:10:28;101974.38;;;21.85;61.28
73864;BME280;62200;52.062;5.292;2022-08-01T12:13:01;101969.53;;;21.89;65.39
73864;BME280;62200;52.062;5.292;2022-08-01T12:15:45;101971.06;;;21.91;58.49
73864;BME280;62200;52.062;5.292;2022-08-01T12:18:10;101983.63;;;21.83;58.59
73864;BME280;62200;52.062;5.292;2022-08-01T12:20:42;101974.53;;;21.84;57.86
73864;BME280;62200;52.062;5.292;2022-08-01T12:23:14;101968.53;;;21.90;65.37
73864;BME280;62200;52.062;5.292;2022-08-01T12:25:41;101969.94;;;21.94;54.54
73864;BME280;62200;52.062;5.292;2022-08-01T12:28:11;101968.53;;;21.90;63.20
73864;BME280;62200;52.062;5.292;2022-08-01T12:30:40;101966.22;;;21.95;62.87
73864;BME280;62200;52.062;5.292;2022-08-01T12:33:07;101964.22;;;21.97;58.15
73864;BME280;62200;52.062;5.292;2022-08-01T12:35:34;101964.19;;;22.07;57.13
73864;BME280;62200;52.062;5.292;2022-08-01T12:38:14;101972.47;;;22.05;52.99
73864;BME280;62200;52.062;5.292;2022-08-01T12:40:44;101977.88;;;22.05;58.15
73864;BME280;62200;52.062;5.292;2022-08-01T12:43:16;101969.06;;;22.03;53.15
73864;BME280;62200;52.062;5.292;2022-08-01T12:45:43;101970.16;;;22.10;58.25
73864;BME280;62200;52.062;5.292;2022-08-01T12:48:11;101984.41;;;22.22;56.61
73864;BME280;62200;52.062;5.292;2022-08-01T12:50:37;101971.03;;;22.11;51.94
73864;BME280;62200;52.062;5.292;2022-08-01T12:53:03;101969.91;;;22.13;54.89
73864;BME280;62200;52.062;5.292;2022-08-01T12:55:29;101970.97;;;22.30;53.22
73864;BME280;62200;52.062;5.292;2022-08-01T12:58:08;101972.13;;;22.27;51.56
73864;BME280;62200;52.062;5.292;2022-08-01T13:00:35;101966.59;;;22.19;51.54
73864;BME280;62200;52.062;5.292;2022-08-01T13:03:08;101963.06;;;22.09;47.33
73864;BME280;62200;52.062;5.292;2022-08-01T13:05:53;101969.91;;;22.04;50.04
73864;BME280;62200;52.062;5.292;2022-08-01T13:11:07;101967.59;;;22.18;49.83
73864;BME280;62200;52.062;5.292;2022-08-01T13:13:51;101970.41;;;22.36;48.84
73864;BME280;62200;52.062;5.292;2022-08-01T13:16:21;101967.00;;;22.24;51.13
73864;BME280;62200;52.062;5.292;2022-08-01T13:18:52;101956.56;;;22.29;53.06
73864;BME280;62200;52.062;5.292;2022-08-01T13:21:19;101958.16;;;22.22;52.91
73864;BME280;62200;52.062;5.292;2022-08-01T13:29:06;101945.47;;;22.23;53.29
73864;BME280;62200;52.062;5.292;2022-08-01T13:31:33;101957.44;;;22.30;48.23